sensor_id;sensor_type;location;lat;lon;timestamp;P1;durP1;ratioP1;P2;durP2;ratioP2
10307;SDS011;5199;54.292;9.688;2022-09-09T06:09:39;1.10;;;1.10;;
10307;SDS011;5199;54.292;9.688;2022-09-09T06:12:07;2.80;;;2.57;;
10307;SDS011;5199;54.292;9.688;2022-09-09T06:14:35;1.80;;;1.70;;
10307;SDS011;5199;54.292;9.688;2022-09-09T06:17:03;2.23;;;2.13;;
10307;SDS011;5199;54.292;9.688;2022-09-09T06:19:30;2.23;;;2.13;;
10307;SDS011;5199;54.292;9.688;2022-09-09T06:21:59;2.30;;;2.20;;
10307;SDS011;5199;54.292;9.688;2022-09-09T06:24:28;1.83;;;1.73;;
10307;SDS011;5199;54.292;9.688;2022-09-09T06:27:01;1.47;;;1.37;;
10307;SDS011;5199;54.292;9.688;2022-09-09T06:29:32;2.07;;;1.97;;
10307;SDS011;5199;54.292;9.688;2022-09-09T06:32:00;2.93;;;2.83;;
10307;SDS011;5199;54.292;9.688;2022-09-09T06:34:28;8.00;;;2.60;;
10307;SDS011;5199;54.292;9.688;2022-09-09T06:36:57;2.00;;;1.90;;
10307;SDS011;5199;54.292;9.688;2022-09-09T06:39:29;2.70;;;2.53;;
10307;SDS011;5199;54.292;9.688;2022-09-09T06:41:56;2.23;;;2.03;;
10307;SDS011;5199;54.292;9.688;2022-09-09T06:44:51;2.03;;;1.93;;
10307;SDS011;5199;54.292;9.688;2022-09-09T06:47:41;1.40;;;1.30;;
10307;SDS011;5199;54.292;9.688;2022-09-09T06:50:09;1.93;;;1.83;;
10307;SDS011;5199;54.292;9.688;2022-09-09T06:52:37;1.60;;;1.50;;
10307;SDS011;5199;54.292;9.688;2022-09-09T06:55:05;1.23;;;1.23;;
10307;SDS011;5199;54.292;9.688;2022-09-09T06:57:35;2.73;;;2.23;;
10307;SDS011;5199;54.292;9.688;2022-09-09T07:00:04;1.63;;;1.53;;
10307;SDS011;5199;54.292;9.688;2022-09-09T07:02:31;1.57;;;1.47;;
10307;SDS011;5199;54.292;9.688;2022-09-09T07:05:04;1.27;;;1.27;;
10307;SDS011;5199;54.292;9.688;2022-09-09T07:07:33;2.37;;;2.27;;
10307;SDS011;5199;54.292;9.688;2022-09-09T07:10:03;2.80;;;2.70;;
10307;SDS011;5199;54.292;9.688;2022-09-09T07:12:31;1.77;;;1.67;;
10307;SDS011;5199;54.292;9.688;2022-09-09T07:14:59;2.57;;;2.37;;
10307;SDS011;5199;54.292;9.688;2022-09-09T07:17:28;2.13;;;2.03;;
10307;SDS011;5199;54.292;9.688;2022-09-09T07:19:58;5.47;;;3.83;;
10307;SDS011;5199;54.292;9.688;2022-09-09T07:22:25;2.77;;;2.67;;
10307;SDS011;5199;54.292;9.688;2022-09-09T07:24:55;2.30;;;1.97;;
10307;SDS011;5199;54.292;9.688;2022-09-09T07:27:23;1.93;;;1.83;;
10307;SDS011;5199;54.292;9.688;2022-09-09T07:29:51;1.70;;;1.60;;
10307;SDS011;5199;54.292;9.688;2022-09-09T07:32:19;2.60;;;2.10;;
10307;SDS011;5199;54.292;9.688;2022-09-09T07:34:48;1.40;;;1.30;;
10307;SDS011;5199;54.292;9.688;2022-09-09T07:37:15;2.17;;;2.07;;
10307;SDS011;5199;54.292;9.688;2022-09-09T07:39:44;1.83;;;1.73;;
10307;SDS011;5199;54.292;9.688;2022-09-09T07:42:12;1.20;;;1.20;;
10307;SDS011;5199;54.292;9.688;2022-09-09T07:44:40;3.93;;;3.63;;
10307;SDS011;5199;54.292;9.688;2022-09-09T07:47:13;5.07;;;2.63;;
10307;SDS011;5199;54.292;9.688;2022-09-09T07:49:44;2.47;;;2.37;;
10307;SDS011;5199;54.292;9.688;2022-09-09T07:52:15;2.77;;;2.60;;
10307;SDS011;5199;54.292;9.688;2022-09-09T07:54:45;3.00;;;2.80;;
10307;SDS011;5199;54.292;9.688;2022-09-09T07:57:13;1.63;;;1.53;;
10307;SDS011;5199;54.292;9.688;2022-09-09T07:59:41;3.33;;;2.10;;
10307;SDS011;5199;54.292;9.688;2022-09-09T08:02:08;1.60;;;1.53;;
10307;SDS011;5199;54.292;9.688;2022-09-09T08:04:36;3.33;;;2.70;;
10307;SDS011;5199;54.292;9.688;2022-09-09T08:07:03;1.00;;;1.00;;
10307;SDS011;5199;54.292;9.688;2022-09-09T08:09:39;1.87;;;1.77;;
10307;SDS011;5199;54.292;9.688;2022-09-09T08:12:15;1.27;;;1.27;;
10307;SDS011;5199;54.292;9.688;2022-09-09T08:14:43;1.73;;;1.63;;
10307;SDS011;5199;54.292;9.688;2022-09-09T08:17:11;1.87;;;1.77;;
10307;SDS011;5199;54.292;9.688;2022-09-09T08:19:38;2.30;;;2.17;;
10307;SDS011;5199;54.292;9.688;2022-09-09T08:22:12;1.50;;;1.47;;
10307;SDS011;5199;54.292;9.688;2022-09-09T08:24:41;8.30;;;3.23;;
10307;SDS011;5199;54.292;9.688;2022-09-09T08:27:09;3.90;;;1.73;;
10307;SDS011;5199;54.292;9.688;2022-09-09T08:29:37;1.50;;;1.40;;
10307;SDS011;5199;54.292;9.688;2022-09-09T08:32:05;2.17;;;2.00;;
10307;SDS011;5199;54.292;9.688;2022-09-09T08:34:33;1.60;;;1.50;;
10307;SDS011;5199;54.292;9.688;2022-09-09T08:37:05;1.97;;;1.87;;
10307;SDS011;5199;54.292;9.688;2022-09-09T08:39:37;2.43;;;2.23;;
10307;SDS011;5199;54.292;9.688;2022-09-09T08:42:09;1.77;;;1.67;;
10307;SDS011;5199;54.292;9.688;2022-09-09T08:44:55;2.15;;;2.05;;
10307;SDS011;5199;54.292;9.688;2022-09-09T08:47:28;1.95;;;1.85;;
10307;SDS011;5199;54.292;9.688;2022-09-09T08:50:01;2.38;;;2.22;;
10307;SDS011;5199;54.292;9.688;2022-09-09T08:52:32;1.58;;;1.48;;
10307;SDS011;5199;54.292;9.688;2022-09-09T08:55:05;1.60;;;1.27;;
10307;SDS011;5199;54.292;9.688;2022-09-09T08:57:40;1.10;;;1.10;;
10307;SDS011;5199;54.292;9.688;2022-09-09T09:00:08;2.35;;;1.92;;
10307;SDS011;5199;54.292;9.688;2022-09-09T09:02:38;2.08;;;1.98;;
10307;SDS011;5199;54.292;9.688;2022-09-09T09:05:13;1.73;;;1.63;;
10307;SDS011;5199;54.292;9.688;2022-09-09T09:07:52;1.50;;;1.40;;
10307;SDS011;5199;54.292;9.688;2022-09-09T09:10:31;2.45;;;2.35;;
10307;SDS011;5199;54.292;9.688;2022-09-09T09:13:03;1.60;;;1.50;;
10307;SDS011;5199;54.292;9.688;2022-09-09T09:15:33;1.83;;;1.73;;
10307;SDS011;5199;54.292;9.688;2022-09-09T09:18:04;1.48;;;1.38;;
10307;SDS011;5199;54.292;9.688;2022-09-09T09:20:33;1.67;;;1.57;;
10307;SDS011;5199;54.292;9.688;2022-09-09T09:23:04;1.90;;;1.80;;
10307;SDS011;5199;54.292;9.688;2022-09-09T09:25:33;1.70;;;1.60;;
10307;SDS011;5199;54.292;9.688;2022-09-09T09:28:10;0.93;;;0.93;;
10307;SDS011;5199;54.292;9.688;2022-09-09T09:30:40;1.73;;;1.63;;
10307;SDS011;5199;54.292;9.688;2022-09-09T09:33:13;1.27;;;1.27;;
10307;SDS011;5199;54.292;9.688;2022-09-09T09:35:42;1.53;;;1.43;;
10307;SDS011;5199;54.292;9.688;2022-09-09T09:38:16;1.00;;;1.00;;
10307;SDS011;5199;54.292;9.688;2022-09-09T09:40:48;1.37;;;1.30;;
10307;SDS011;5199;54.292;9.688;2022-09-09T09:43:20;1.17;;;1.08;;
10307;SDS011;5199;54.292;9.688;2022-09-09T09:45:48;1.13;;;1.13;;
10307;SDS011;5199;54.292;9.688;2022-09-09T09:48:16;1.92;;;1.80;;
10307;SDS011;5199;54.292;9.688;2022-09-09T09:50:47;1.35;;;1.23;;
10307;SDS011;5199;54.292;9.688;2022-09-09T09:53:20;1.52;;;1.40;;
10307;SDS011;5199;54.292;9.688;2022-09-09T09:55:51;1.58;;;1.48;;
10307;SDS011;5199;54.292;9.688;2022-09-09T09:58:21;1.08;;;1.08;;
10307;SDS011;5199;54.292;9.688;2022-09-09T10:00:49;1.25;;;1.10;;
10307;SDS011;5199;54.292;9.688;2022-09-09T10:03:20;1.67;;;1.58;;
10307;SDS011;5199;54.292;9.688;2022-09-09T10:05:49;1.13;;;1.10;;
10307;SDS011;5199;54.292;9.688;2022-09-09T10:08:17;1.13;;;1.10;;
10307;SDS011;5199;54.292;9.688;2022-09-09T10:10:57;1.10;;;1.10;;
10307;SDS011;5199;54.292;9.688;2022-09-09T10:13:30;1.45;;;1.35;;
10307;SDS011;5199;54.292;9.688;2022-09-09T10:16:06;1.25;;;1.15;;
10307;SDS011;5199;54.292;9.688;2022-09-09T10:18:36;0.80;;;0.80;;
10307;SDS011;5199;54.292;9.688;2022-09-09T10:21:14;1.38;;;1.27;;
10307;SDS011;5199;54.292;9.688;2022-09-09T10:23:49;1.30;;;1.30;;
10307;SDS011;5199;54.292;9.688;2022-09-09T10:26:25;0.90;;;0.90;;
10307;SDS011;5199;54.292;9.688;2022-09-09T10:29:08;0.90;;;0.90;;
10307;SDS011;5199;54.292;9.688;2022-09-09T10:31:38;1.00;;;1.00;;
10307;SDS011;5199;54.292;9.688;2022-09-09T10:34:10;0.88;;;0.88;;
10307;SDS011;5199;54.292;9.688;2022-09-09T10:36:40;0.90;;;0.90;;
10307;SDS011;5199;54.292;9.688;2022-09-09T10:39:13;0.90;;;0.90;;
10307;SDS011;5199;54.292;9.688;2022-09-09T10:41:44;1.33;;;1.23;;
10307;SDS011;5199;54.292;9.688;2022-09-09T10:44:17;1.27;;;1.17;;
10307;SDS011;5199;54.292;9.688;2022-09-09T10:46:53;1.45;;;1.35;;
10307;SDS011;5199;54.292;9.688;2022-09-09T10:49:27;1.55;;;1.42;;
10307;SDS011;5199;54.292;9.688;2022-09-09T10:52:01;0.80;;;0.80;;
10307;SDS011;5199;54.292;9.688;2022-09-09T10:54:32;1.25;;;1.25;;
10307;SDS011;5199;54.292;9.688;2022-09-09T10:57:04;1.00;;;1.00;;
10307;SDS011;5199;54.292;9.688;2022-09-09T10:59:35;0.85;;;0.85;;
10307;SDS011;5199;54.292;9.688;2022-09-09T11:02:05;1.00;;;1.00;;
10307;SDS011;5199;54.292;9.688;2022-09-09T11:04:38;1.25;;;1.25;;
10307;SDS011;5199;54.292;9.688;2022-09-09T11:07:08;1.48;;;1.38;;
10307;SDS011;5199;54.292;9.688;2022-09-09T11:09:38;0.90;;;0.90;;
10307;SDS011;5199;54.292;9.688;2022-09-09T11:12:06;0.90;;;0.90;;
10307;SDS011;5199;54.292;9.688;2022-09-09T11:14:41;1.10;;;1.10;;
10307;SDS011;5199;54.292;9.688;2022-09-09T11:17:10;0.80;;;0.80;;
10307;SDS011;5199;54.292;9.688;2022-09-09T11:19:38;1.05;;;1.05;;
10307;SDS011;5199;54.292;9.688;2022-09-09T11:22:06;0.80;;;0.80;;
10307;SDS011;5199;54.292;9.688;2022-09-09T11:24:36;1.02;;;1.02;;
10307;SDS011;5199;54.292;9.688;2022-09-09T11:27:07;8.68;;;1.35;;
10307;SDS011;5199;54.292;9.688;2022-09-09T11:29:47;0.80;;;0.80;;
10307;SDS011;5199;54.292;9.688;2022-09-09T11:32:24;0.80;;;0.80;;
10307;SDS011;5199;54.292;9.688;2022-09-09T11:34:55;0.80;;;0.80;;
10307;SDS011;5199;54.292;9.688;2022-09-09T11:37:28;1.00;;;1.00;;
10307;SDS011;5199;54.292;9.688;2022-09-09T11:40:15;0.70;;;0.70;;
10307;SDS011;5199;54.292;9.688;2022-09-09T11:42:44;1.10;;;1.10;;
10307;SDS011;5199;54.292;9.688;2022-09-09T11:45:21;0.80;;;0.80;;
10307;SDS011;5199;54.292;9.688;2022-09-09T11:47:52;0.80;;;0.80;;
10307;SDS011;5199;54.292;9.688;2022-09-09T11:50:28;1.08;;;1.05;;
10307;SDS011;5199;54.292;9.688;2022-09-09T11:53:14;0.65;;;0.65;;
10307;SDS011;5199;54.292;9.688;2022-09-09T11:55:43;0.80;;;0.80;;
10307;SDS011;5199;54.292;9.688;2022-09-09T11:58:15;0.80;;;0.80;;
10307;SDS011;5199;54.292;9.688;2022-09-09T12:00:45;0.80;;;0.80;;
10307;SDS011;5199;54.292;9.688;2022-09-09T12:05:55;0.70;;;0.70;;
10307;SDS011;5199;54.292;9.688;2022-09-09T12:08:24;0.88;;;0.88;;
10307;SDS011;5199;54.292;9.688;2022-09-09T12:10:53;0.80;;;0.80;;
10307;SDS011;5199;54.292;9.688;2022-09-09T12:13:22;0.93;;;0.93;;
10307;SDS011;5199;54.292;9.688;2022-09-09T12:15:52;0.90;;;0.90;;
10307;SDS011;5199;54.292;9.688;2022-09-09T12:18:21;0.80;;;0.80;;
10307;SDS011;5199;54.292;9.688;2022-09-09T12:20:52;0.80;;;0.80;;
10307;SDS011;5199;54.292;9.688;2022-09-09T12:23:24;0.70;;;0.70;;
10307;SDS011;5199;54.292;9.688;2022-09-09T12:25:57;0.80;;;0.80;;
10307;SDS011;5199;54.292;9.688;2022-09-09T12:28:27;0.90;;;0.90;;
10307;SDS011;5199;54.292;9.688;2022-09-09T12:31:04;0.80;;;0.80;;
10307;SDS011;5199;54.292;9.688;2022-09-09T12:33:34;0.80;;;0.80;;
10307;SDS011;5199;54.292;9.688;2022-09-09T12:36:02;0.80;;;0.80;;
10307;SDS011;5199;54.292;9.688;2022-09-09T12:38:32;0.88;;;0.88;;
10307;SDS011;5199;54.292;9.688;2022-09-09T12:40:59;0.90;;;0.90;;
10307;SDS011;5199;54.292;9.688;2022-09-09T12:43:27;0.80;;;0.80;;
10307;SDS011;5199;54.292;9.688;2022-09-09T12:45:55;0.70;;;0.70;;
10307;SDS011;5199;54.292;9.688;2022-09-09T12:48:29;0.80;;;0.80;;
10307;SDS011;5199;54.292;9.688;2022-09-09T12:50:58;0.80;;;0.80;;
10307;SDS011;5199;54.292;9.688;2022-09-09T12:53:26;1.08;;;1.08;;
10307;SDS011;5199;54.292;9.688;2022-09-09T12:55:56;1.17;;;1.08;;
10307;SDS011;5199;54.292;9.688;2022-09-09T12:58:24;0.80;;;0.80;;
10307;SDS011;5199;54.292;9.688;2022-09-09T13:00:58;0.80;;;0.80;;
10307;SDS011;5199;54.292;9.688;2022-09-09T13:03:26;1.00;;;1.00;;
10307;SDS011;5199;54.292;9.688;2022-09-09T13:05:57;0.80;;;0.80;;
10307;SDS011;5199;54.292;9.688;2022-09-09T13:08:25;0.80;;;0.80;;
10307;SDS011;5199;54.292;9.688;2022-09-09T13:10:54;0.75;;;0.75;;
10307;SDS011;5199;54.292;9.688;2022-09-09T13:13:22;0.82;;;0.82;;
10307;SDS011;5199;54.292;9.688;2022-09-09T13:15:51;0.80;;;0.80;;
10307;SDS011;5199;54.292;9.688;2022-09-09T13:18:21;0.98;;;0.98;;
10307;SDS011;5199;54.292;9.688;2022-09-09T13:20:49;0.80;;;0.80;;
10307;SDS011;5199;54.292;9.688;2022-09-09T13:23:19;0.70;;;0.70;;
10307;SDS011;5199;54.292;9.688;2022-09-09T13:25:53;0.80;;;0.80;;
10307;SDS011;5199;54.292;9.688;2022-09-09T13:28:21;0.70;;;0.70;;
10307;SDS011;5199;54.292;9.688;2022-09-09T13:30:58;0.70;;;0.70;;
10307;SDS011;5199;54.292;9.688;2022-09-09T13:33:30;0.70;;;0.70;;
10307;SDS011;5199;54.292;9.688;2022-09-09T13:35:58;0.70;;;0.70;;
10307;SDS011;5199;54.292;9.688;2022-09-09T13:38:29;1.15;;;0.98;;
10307;SDS011;5199;54.292;9.688;2022-09-09T13:40:58;0.70;;;0.70;;
10307;SDS011;5199;54.292;9.688;2022-09-09T13:43:27;0.70;;;0.70;;
10307;SDS011;5199;54.292;9.688;2022-09-09T13:45:56;0.90;;;0.90;;
10307;SDS011;5199;54.292;9.688;2022-09-09T13:48:24;0.77;;;0.77;;
10307;SDS011;5199;54.292;9.688;2022-09-09T13:51:02;0.82;;;0.82;;
10307;SDS011;5199;54.292;9.688;2022-09-09T13:53:31;0.80;;;0.80;;
10307;SDS011;5199;54.292;9.688;2022-09-09T13:55:59;1.17;;;1.17;;
10307;SDS011;5199;54.292;9.688;2022-09-09T13:58:26;0.77;;;0.77;;
10307;SDS011;5199;54.292;9.688;2022-09-09T14:00:54;0.70;;;0.70;;
10307;SDS011;5199;54.292;9.688;2022-09-09T14:03:22;1.00;;;0.93;;
10307;SDS011;5199;54.292;9.688;2022-09-09T14:05:49;0.80;;;0.80;;
10307;SDS011;5199;54.292;9.688;2022-09-09T14:08:24;0.80;;;0.80;;
10307;SDS011;5199;54.292;9.688;2022-09-09T14:10:54;0.80;;;0.80;;
10307;SDS011;5199;54.292;9.688;2022-09-09T14:13:23;0.80;;;0.80;;
10307;SDS011;5199;54.292;9.688;2022-09-09T14:15:51;1.52;;;0.98;;
10307;SDS011;5199;54.292;9.688;2022-09-09T14:18:18;0.70;;;0.70;;
10307;SDS011;5199;54.292;9.688;2022-09-09T14:20:47;0.70;;;0.70;;
10307;SDS011;5199;54.292;9.688;2022-09-09T14:23:15;0.70;;;0.70;;
10307;SDS011;5199;54.292;9.688;2022-09-09T14:25:44;0.80;;;0.80;;
10307;SDS011;5199;54.292;9.688;2022-09-09T14:28:13;0.80;;;0.80;;
10307;SDS011;5199;54.292;9.688;2022-09-09T14:30:41;0.70;;;0.70;;
10307;SDS011;5199;54.292;9.688;2022-09-09T14:33:11;0.80;;;0.80;;
10307;SDS011;5199;54.292;9.688;2022-09-09T14:35:39;0.80;;;0.80;;
10307;SDS011;5199;54.292;9.688;2022-09-09T14:38:07;0.80;;;0.80;;
10307;SDS011;5199;54.292;9.688;2022-09-09T14:40:34;0.90;;;0.90;;
10307;SDS011;5199;54.292;9.688;2022-09-09T14:43:01;0.90;;;0.90;;
10307;SDS011;5199;54.292;9.688;2022-09-09T14:45:30;0.80;;;0.80;;
10307;SDS011;5199;54.292;9.688;2022-09-09T14:47:57;0.80;;;0.80;;
10307;SDS011;5199;54.292;9.688;2022-09-09T14:50:25;0.80;;;0.80;;
10307;SDS011;5199;54.292;9.688;2022-09-09T14:52:52;0.80;;;0.80;;
10307;SDS011;5199;54.292;9.688;2022-09-09T14:55:19;0.80;;;0.80;;
10307;SDS011;5199;54.292;9.688;2022-09-09T14:57:47;0.90;;;0.90;;
10307;SDS011;5199;54.292;9.688;2022-09-09T15:00:15;1.00;;;1.00;;
10307;SDS011;5199;54.292;9.688;2022-09-09T15:02:43;0.88;;;0.88;;
10307;SDS011;5199;54.292;9.688;2022-09-09T15:05:11;0.88;;;0.88;;
10307;SDS011;5199;54.292;9.688;2022-09-09T15:07:38;0.90;;;0.90;;
10307;SDS011;5199;54.292;9.688;2022-09-09T15:10:05;0.82;;;0.82;;
10307;SDS011;5199;54.292;9.688;2022-09-09T15:12:33;0.80;;;0.80;;
10307;SDS011;5199;54.292;9.688;2022-09-09T15:15:00;2.15;;;1.10;;
10307;SDS011;5199;54.292;9.688;2022-09-09T15:17:28;0.80;;;0.80;;
10307;SDS011;5199;54.292;9.688;2022-09-09T15:19:57;0.80;;;0.80;;
10307;SDS011;5199;54.292;9.688;2022-09-09T15:22:24;0.80;;;0.80;;
10307;SDS011;5199;54.292;9.688;2022-09-09T15:24:52;0.80;;;0.80;;
10307;SDS011;5199;54.292;9.688;2022-09-09T15:27:19;0.80;;;0.80;;
10307;SDS011;5199;54.292;9.688;2022-09-09T15:29:48;0.80;;;0.80;;
10307;SDS011;5199;54.292;9.688;2022-09-09T15:32:16;0.80;;;0.80;;
10307;SDS011;5199;54.292;9.688;2022-09-09T15:34:44;0.90;;;0.90;;
10307;SDS011;5199;54.292;9.688;2022-09-09T15:37:12;0.90;;;0.90;;
10307;SDS011;5199;54.292;9.688;2022-09-09T15:39:40;0.90;;;0.90;;
10307;SDS011;5199;54.292;9.688;2022-09-09T15:42:07;0.80;;;0.80;;
10307;SDS011;5199;54.292;9.688;2022-09-09T15:44:38;1.00;;;1.00;;
10307;SDS011;5199;54.292;9.688;2022-09-09T15:47:07;2.30;;;1.20;;
10307;SDS011;5199;54.292;9.688;2022-09-09T15:49:37;0.80;;;0.80;;
10307;SDS011;5199;54.292;9.688;2022-09-09T15:52:04;0.80;;;0.80;;
10307;SDS011;5199;54.292;9.688;2022-09-09T15:54:33;0.80;;;0.80;;
10307;SDS011;5199;54.292;9.688;2022-09-09T15:57:02;0.80;;;0.80;;
10307;SDS011;5199;54.292;9.688;2022-09-09T15:59:30;1.00;;;1.00;;
10307;SDS011;5199;54.292;9.688;2022-09-09T16:01:58;0.83;;;0.83;;
10307;SDS011;5199;54.292;9.688;2022-09-09T16:04:26;0.80;;;0.80;;
10307;SDS011;5199;54.292;9.688;2022-09-09T16:06:54;0.90;;;0.90;;
10307;SDS011;5199;54.292;9.688;2022-09-09T16:09:23;0.80;;;0.80;;
10307;SDS011;5199;54.292;9.688;2022-09-09T16:11:52;0.80;;;0.80;;
10307;SDS011;5199;54.292;9.688;2022-09-09T16:14:19;0.80;;;0.80;;
10307;SDS011;5199;54.292;9.688;2022-09-09T16:16:47;0.80;;;0.80;;
10307;SDS011;5199;54.292;9.688;2022-09-09T16:19:14;0.80;;;0.80;;
10307;SDS011;5199;54.292;9.688;2022-09-09T16:21:42;0.80;;;0.80;;
10307;SDS011;5199;54.292;9.688;2022-09-09T16:24:10;0.80;;;0.80;;
10307;SDS011;5199;54.292;9.688;2022-09-09T16:26:38;0.80;;;0.80;;
10307;SDS011;5199;54.292;9.688;2022-09-09T16:29:08;0.80;;;0.80;;
10307;SDS011;5199;54.292;9.688;2022-09-09T16:31:36;0.80;;;0.80;;
10307;SDS011;5199;54.292;9.688;2022-09-09T16:34:03;0.80;;;0.80;;
10307;SDS011;5199;54.292;9.688;2022-09-09T16:36:31;0.90;;;0.90;;
10307;SDS011;5199;54.292;9.688;2022-09-09T16:39:00;0.80;;;0.80;;
10307;SDS011;5199;54.292;9.688;2022-09-09T16:41:28;0.80;;;0.80;;
10307;SDS011;5199;54.292;9.688;2022-09-09T16:43:56;0.90;;;0.90;;
10307;SDS011;5199;54.292;9.688;2022-09-09T16:46:26;0.80;;;0.80;;
10307;SDS011;5199;54.292;9.688;2022-09-09T16:48:53;0.90;;;0.90;;
10307;SDS011;5199;54.292;9.688;2022-09-09T16:51:24;0.80;;;0.80;;
10307;SDS011;5199;54.292;9.688;2022-09-09T16:53:52;0.80;;;0.80;;
10307;SDS011;5199;54.292;9.688;2022-09-09T16:56:21;0.80;;;0.80;;
10307;SDS011;5199;54.292;9.688;2022-09-09T16:58:49;1.40;;;1.40;;
10307;SDS011;5199;54.292;9.688;2022-09-09T17:01:17;0.90;;;0.90;;
10307;SDS011;5199;54.292;9.688;2022-09-09T17:03:45;0.83;;;0.83;;
10307;SDS011;5199;54.292;9.688;2022-09-09T17:06:13;0.80;;;0.80;;
10307;SDS011;5199;54.292;9.688;2022-09-09T17:08:41;0.80;;;0.80;;
10307;SDS011;5199;54.292;9.688;2022-09-09T17:11:12;0.80;;;0.80;;
10307;SDS011;5199;54.292;9.688;2022-09-09T17:13:41;0.90;;;0.90;;
10307;SDS011;5199;54.292;9.688;2022-09-09T17:16:08;0.97;;;0.97;;
10307;SDS011;5199;54.292;9.688;2022-09-09T17:18:36;0.90;;;0.90;;
10307;SDS011;5199;54.292;9.688;2022-09-09T17:21:05;1.03;;;1.03;;
10307;SDS011;5199;54.292;9.688;2022-09-09T17:23:33;1.03;;;1.03;;
10307;SDS011;5199;54.292;9.688;2022-09-09T17:26:03;0.90;;;0.90;;
10307;SDS011;5199;54.292;9.688;2022-09-09T17:28:32;0.93;;;0.93;;
10307;SDS011;5199;54.292;9.688;2022-09-09T17:30:59;0.90;;;0.90;;
10307;SDS011;5199;54.292;9.688;2022-09-09T17:33:28;0.90;;;0.90;;
10307;SDS011;5199;54.292;9.688;2022-09-09T17:35:56;0.90;;;0.90;;
10307;SDS011;5199;54.292;9.688;2022-09-09T17:38:26;1.47;;;1.10;;
10307;SDS011;5199;54.292;9.688;2022-09-09T17:41:00;0.90;;;0.90;;
10307;SDS011;5199;54.292;9.688;2022-09-09T17:43:27;0.90;;;0.90;;
10307;SDS011;5199;54.292;9.688;2022-09-09T17:45:55;0.90;;;0.90;;
10307;SDS011;5199;54.292;9.688;2022-09-09T17:48:22;0.90;;;0.90;;
10307;SDS011;5199;54.292;9.688;2022-09-09T17:50:56;0.90;;;0.90;;
10307;SDS011;5199;54.292;9.688;2022-09-09T17:53:25;0.90;;;0.90;;
10307;SDS011;5199;54.292;9.688;2022-09-09T17:55:53;0.90;;;0.90;;
10307;SDS011;5199;54.292;9.688;2022-09-09T17:58:21;0.90;;;0.90;;
10307;SDS011;5199;54.292;9.688;2022-09-09T18:00:48;0.90;;;0.90;;
10307;SDS011;5199;54.292;9.688;2022-09-09T18:03:16;0.80;;;0.80;;
10307;SDS011;5199;54.292;9.688;2022-09-09T18:05:43;0.90;;;0.90;;
10307;SDS011;5199;54.292;9.688;2022-09-09T18:08:11;1.00;;;1.00;;
10307;SDS011;5199;54.292;9.688;2022-09-09T18:10:39;0.90;;;0.90;;
10307;SDS011;5199;54.292;9.688;2022-09-09T18:13:10;0.80;;;0.80;;
10307;SDS011;5199;54.292;9.688;2022-09-09T18:15:37;0.80;;;0.80;;
10307;SDS011;5199;54.292;9.688;2022-09-09T18:18:04;1.60;;;1.50;;
10307;SDS011;5199;54.292;9.688;2022-09-09T18:20:32;0.80;;;0.80;;
